sensor_id;sensor_type;location;lat;lon;timestamp;pressure;altitude;pressure_sealevel;temperature;humidity
75157;BME280;63736;50.076;8.198;2024-03-06T00:01:09;99638.53;;;4.56;100.00
75157;BME280;63736;50.076;8.198;2024-03-06T00:02:39;99638.81;;;4.52;100.00
75157;BME280;63736;50.076;8.198;2024-03-06T00:04:10;99641.59;;;4.49;100.00
75157;BME280;63736;50.076;8.198;2024-03-06T00:05:40;99639.16;;;4.45;100.00
75157;BME280;63736;50.076;8.198;2024-03-06T00:07:11;99639.34;;;4.42;100.00
75157;BME280;63736;50.076;8.198;2024-03-06T00:08:41;99643.00;;;4.40;100.00
75157;BME280;63736;50.076;8.198;2024-03-06T00:10:11;99640.50;;;4.37;100.00
75157;BME280;63736;50.076;8.198;2024-03-06T00:11:42;99641.53;;;4.34;100.00
75157;BME280;63736;50.076;8.198;2024-03-06T00:13:13;99645.22;;;4.32;100.00
75157;BME280;63736;50.076;8.198;2024-03-06T00:14:43;99647.94;;;4.30;100.00
75157;BME280;63736;50.076;8.198;2024-03-06T00:16:13;99640.94;;;4.29;100.00
75157;BME280;63736;50.076;8.198;2024-03-06T00:17:44;99647.19;;;4.28;100.00
75157;BME280;63736;50.076;8.198;2024-03-06T00:19:14;99642.94;;;4.25;100.00
75157;BME280;63736;50.076;8.198;2024-03-06T00:20:44;99649.16;;;4.24;100.00
75157;BME280;63736;50.076;8.198;2024-03-06T00:22:14;99649.31;;;4.21;100.00
75157;BME280;63736;50.076;8.198;2024-03-06T00:23:45;99651.28;;;4.18;100.00
75157;BME280;63736;50.076;8.198;2024-03-06T00:25:18;99661.19;;;4.14;100.00
75157;BME280;63736;50.076;8.198;2024-03-06T00:26:49;99660.47;;;4.10;100.00
75157;BME280;63736;50.076;8.198;2024-03-06T00:28:19;99665.94;;;4.07;100.00
75157;BME280;63736;50.076;8.198;2024-03-06T00:29:49;99664.34;;;4.05;100.00
75157;BME280;63736;50.076;8.198;2024-03-06T00:31:19;99664.41;;;4.03;100.00
75157;BME280;63736;50.076;8.198;2024-03-06T00:32:49;99668.09;;;4.01;100.00
75157;BME280;63736;50.076;8.198;2024-03-06T00:34:20;99679.59;;;4.00;100.00
75157;BME280;63736;50.076;8.198;2024-03-06T00:35:50;99677.03;;;3.98;100.00
75157;BME280;63736;50.076;8.198;2024-03-06T00:37:20;99677.97;;;3.97;100.00
75157;BME280;63736;50.076;8.198;2024-03-06T00:38:51;99682.47;;;3.95;100.00
75157;BME280;63736;50.076;8.198;2024-03-06T00:40:21;99682.47;;;3.95;100.00
75157;BME280;63736;50.076;8.198;2024-03-06T00:41:52;99686.81;;;3.96;100.00
75157;BME280;63736;50.076;8.198;2024-03-06T00:43:22;99679.69;;;3.98;100.00
75157;BME280;63736;50.076;8.198;2024-03-06T00:44:52;99681.31;;;4.01;100.00
75157;BME280;63736;50.076;8.198;2024-03-06T00:46:23;99676.75;;;4.03;100.00
75157;BME280;63736;50.076;8.198;2024-03-06T00:47:53;99676.66;;;4.04;100.00
75157;BME280;63736;50.076;8.198;2024-03-06T00:49:23;99679.25;;;4.06;100.00
75157;BME280;63736;50.076;8.198;2024-03-06T00:50:54;99681.03;;;4.05;100.00
75157;BME280;63736;50.076;8.198;2024-03-06T00:52:24;99679.25;;;4.06;100.00
75157;BME280;63736;50.076;8.198;2024-03-06T00:53:54;99679.25;;;4.06;100.00
75157;BME280;63736;50.076;8.198;2024-03-06T00:55:24;99684.59;;;4.04;100.00
75157;BME280;63736;50.076;8.198;2024-03-06T00:56:55;99685.56;;;4.03;100.00
75157;BME280;63736;50.076;8.198;2024-03-06T00:58:25;99683.06;;;4.00;100.00
75157;BME280;63736;50.076;8.198;2024-03-06T00:59:55;99691.09;;;3.99;100.00
75157;BME280;63736;50.076;8.198;2024-03-06T01:01:25;99692.09;;;3.96;100.00
75157;BME280;63736;50.076;8.198;2024-03-06T01:02:57;99686.13;;;3.92;100.00
75157;BME280;63736;50.076;8.198;2024-03-06T01:04:27;99694.06;;;3.92;100.00
75157;BME280;63736;50.076;8.198;2024-03-06T01:05:58;99692.34;;;3.91;100.00
75157;BME280;63736;50.076;8.198;2024-03-06T01:07:28;99687.00;;;3.93;100.00
75157;BME280;63736;50.076;8.198;2024-03-06T01:08:58;99686.22;;;3.91;100.00
75157;BME280;63736;50.076;8.198;2024-03-06T01:10:29;99684.50;;;3.90;100.00
75157;BME280;63736;50.076;8.198;2024-03-06T01:11:59;99682.72;;;3.90;100.00
75157;BME280;63736;50.076;8.198;2024-03-06T01:13:29;99681.72;;;3.93;100.00
75157;BME280;63736;50.076;8.198;2024-03-06T01:14:59;99679.81;;;3.95;100.00
75157;BME280;63736;50.076;8.198;2024-03-06T01:16:30;99676.16;;;3.97;100.00
75157;BME280;63736;50.076;8.198;2024-03-06T01:18:00;99679.50;;;4.01;100.00
75157;BME280;63736;50.076;8.198;2024-03-06T01:19:30;99675.06;;;4.02;100.00
75157;BME280;63736;50.076;8.198;2024-03-06T01:21:01;99672.41;;;4.02;100.00
75157;BME280;63736;50.076;8.198;2024-03-06T01:22:31;99678.56;;;4.02;100.00
75157;BME280;63736;50.076;8.198;2024-03-06T01:24:01;99671.56;;;4.01;100.00
75157;BME280;63736;50.076;8.198;2024-03-06T01:25:32;99679.41;;;4.03;100.00
75157;BME280;63736;50.076;8.198;2024-03-06T01:27:02;99674.13;;;4.03;100.00
75157;BME280;63736;50.076;8.198;2024-03-06T01:28:32;99668.84;;;4.03;100.00
75157;BME280;63736;50.076;8.198;2024-03-06T01:30:03;99684.69;;;4.03;100.00
75157;BME280;63736;50.076;8.198;2024-03-06T01:31:34;99679.59;;;4.00;100.00
75157;BME280;63736;50.076;8.198;2024-03-06T01:33:04;99686.72;;;3.97;100.00
75157;BME280;63736;50.076;8.198;2024-03-06T01:34:35;99687.75;;;3.95;100.00
75157;BME280;63736;50.076;8.198;2024-03-06T01:36:06;99687.94;;;3.92;100.00
75157;BME280;63736;50.076;8.198;2024-03-06T01:37:36;99683.75;;;3.88;100.00
75157;BME280;63736;50.076;8.198;2024-03-06T01:39:07;99685.59;;;3.86;100.00
75157;BME280;63736;50.076;8.198;2024-03-06T01:40:37;99692.84;;;3.82;100.00
75157;BME280;63736;50.076;8.198;2024-03-06T01:42:07;99694.72;;;3.80;100.00
75157;BME280;63736;50.076;8.198;2024-03-06T01:43:38;99698.38;;;3.77;100.00
75157;BME280;63736;50.076;8.198;2024-03-06T01:45:09;99692.41;;;3.74;100.00
75157;BME280;63736;50.076;8.198;2024-03-06T01:46:40;99689.84;;;3.72;100.00
75157;BME280;63736;50.076;8.198;2024-03-06T01:48:10;99691.78;;;3.69;100.00
75157;BME280;63736;50.076;8.198;2024-03-06T01:49:41;99689.31;;;3.66;100.00
75157;BME280;63736;50.076;8.198;2024-03-06T01:51:12;99691.19;;;3.63;100.00
75157;BME280;63736;50.076;8.198;2024-03-06T01:52:43;99701.91;;;3.60;100.00
75157;BME280;63736;50.076;8.198;2024-03-06T01:54:14;99687.84;;;3.60;100.00
75157;BME280;63736;50.076;8.198;2024-03-06T01:55:45;99691.41;;;3.59;100.00
75157;BME280;63736;50.076;8.198;2024-03-06T01:57:17;99686.13;;;3.59;100.00
75157;BME280;63736;50.076;8.198;2024-03-06T01:58:48;99695.75;;;3.60;100.00
75157;BME280;63736;50.076;8.198;2024-03-06T02:00:18;99694.84;;;3.61;100.00
75157;BME280;63736;50.076;8.198;2024-03-06T02:01:50;99694.00;;;3.60;100.00
75157;BME280;63736;50.076;8.198;2024-03-06T02:03:24;99698.31;;;3.61;100.00
75157;BME280;63736;50.076;8.198;2024-03-06T02:04:55;99691.34;;;3.60;100.00
75157;BME280;63736;50.076;8.198;2024-03-06T02:06:27;99691.34;;;3.60;100.00
75157;BME280;63736;50.076;8.198;2024-03-06T02:07:58;99703.69;;;3.60;100.00
75157;BME280;63736;50.076;8.198;2024-03-06T02:09:32;99698.50;;;3.58;100.00
75157;BME280;63736;50.076;8.198;2024-03-06T02:11:02;99696.78;;;3.57;100.00
75157;BME280;63736;50.076;8.198;2024-03-06T02:12:33;99695.00;;;3.58;100.00
75157;BME280;63736;50.076;8.198;2024-03-06T02:14:04;99699.50;;;3.56;100.00
75157;BME280;63736;50.076;8.198;2024-03-06T02:15:36;99700.34;;;3.56;100.00
75157;BME280;63736;50.076;8.198;2024-03-06T02:17:07;99696.69;;;3.59;100.00
75157;BME280;63736;50.076;8.198;2024-03-06T02:18:37;99703.59;;;3.61;100.00
75157;BME280;63736;50.076;8.198;2024-03-06T02:20:08;99700.03;;;3.62;100.00
75157;BME280;63736;50.076;8.198;2024-03-06T02:21:42;99705.22;;;3.64;100.00
75157;BME280;63736;50.076;8.198;2024-03-06T02:23:13;99711.28;;;3.66;100.00
75157;BME280;63736;50.076;8.198;2024-03-06T02:24:47;99715.66;;;3.67;100.00
75157;BME280;63736;50.076;8.198;2024-03-06T02:26:18;99713.75;;;3.69;100.00
75157;BME280;63736;50.076;8.198;2024-03-06T02:27:48;99711.81;;;3.73;100.00
75157;BME280;63736;50.076;8.198;2024-03-06T02:29:18;99709.88;;;3.76;100.00
75157;BME280;63736;50.076;8.198;2024-03-06T02:30:52;99704.41;;;3.79;100.00
75157;BME280;63736;50.076;8.198;2024-03-06T02:32:23;99707.75;;;3.83;100.00
75157;BME280;63736;50.076;8.198;2024-03-06T02:33:54;99708.28;;;3.90;100.00
75157;BME280;63736;50.076;8.198;2024-03-06T02:35:24;99712.47;;;3.94;100.00
75157;BME280;63736;50.076;8.198;2024-03-06T02:36:54;99711.38;;;3.98;100.00
75157;BME280;63736;50.076;8.198;2024-03-06T02:38:25;99708.75;;;3.98;100.00
75157;BME280;63736;50.076;8.198;2024-03-06T02:39:55;99706.94;;;3.99;100.00
75157;BME280;63736;50.076;8.198;2024-03-06T02:41:25;99715.81;;;3.97;100.00
75157;BME280;63736;50.076;8.198;2024-03-06T02:42:56;99713.34;;;3.94;100.00
75157;BME280;63736;50.076;8.198;2024-03-06T02:44:26;99709.16;;;3.90;100.00
75157;BME280;63736;50.076;8.198;2024-03-06T02:45:57;99705.03;;;3.85;100.00
75157;BME280;63736;50.076;8.198;2024-03-06T02:47:27;99702.66;;;3.80;100.00
75157;BME280;63736;50.076;8.198;2024-03-06T02:48:57;99704.69;;;3.75;100.00
75157;BME280;63736;50.076;8.198;2024-03-06T02:50:27;99697.00;;;3.70;100.00
75157;BME280;63736;50.076;8.198;2024-03-06T02:51:58;99699.00;;;3.65;100.00
75157;BME280;63736;50.076;8.198;2024-03-06T02:53:31;99700.19;;;3.59;100.00
75157;BME280;63736;50.076;8.198;2024-03-06T02:55:02;99699.59;;;3.54;100.00
75157;BME280;63736;50.076;8.198;2024-03-06T02:56:32;99706.06;;;3.49;100.00
75157;BME280;63736;50.076;8.198;2024-03-06T02:58:03;99703.72;;;3.42;100.00
75157;BME280;63736;50.076;8.198;2024-03-06T02:59:33;99699.59;;;3.37;100.00
75157;BME280;63736;50.076;8.198;2024-03-06T03:01:04;99702.50;;;3.32;100.00
75157;BME280;63736;50.076;8.198;2024-03-06T03:02:34;99704.50;;;3.27;100.00
75157;BME280;63736;50.076;8.198;2024-03-06T03:04:04;99705.59;;;3.23;100.00
75157;BME280;63736;50.076;8.198;2024-03-06T03:05:36;99708.53;;;3.17;100.00
75157;BME280;63736;50.076;8.198;2024-03-06T03:07:07;99702.56;;;3.13;100.00
75157;BME280;63736;50.076;8.198;2024-03-06T03:08:38;99704.56;;;3.08;100.00
75157;BME280;63736;50.076;8.198;2024-03-06T03:10:09;99710.00;;;3.05;100.00
75157;BME280;63736;50.076;8.198;2024-03-06T03:11:42;99713.75;;;3.01;100.00
75157;BME280;63736;50.076;8.198;2024-03-06T03:13:13;99709.47;;;2.98;100.00
75157;BME280;63736;50.076;8.198;2024-03-06T03:14:43;99713.97;;;2.96;100.00
75157;BME280;63736;50.076;8.198;2024-03-06T03:16:18;99711.47;;;2.93;100.00
75157;BME280;63736;50.076;8.198;2024-03-06T03:17:48;99711.56;;;2.91;100.00
75157;BME280;63736;50.076;8.198;2024-03-06T03:19:18;99711.63;;;2.90;100.00
75157;BME280;63736;50.076;8.198;2024-03-06T03:20:49;99711.69;;;2.88;100.00
75157;BME280;63736;50.076;8.198;2024-03-06T03:22:19;99712.69;;;2.86;100.00
75157;BME280;63736;50.076;8.198;2024-03-06T03:23:49;99714.50;;;2.85;100.00
75157;BME280;63736;50.076;8.198;2024-03-06T03:25:20;99712.78;;;2.84;100.00
75157;BME280;63736;50.076;8.198;2024-03-06T03:26:52;99720.69;;;2.84;100.00
75157;BME280;63736;50.076;8.198;2024-03-06T03:28:22;99726.06;;;2.83;100.00
75157;BME280;63736;50.076;8.198;2024-03-06T03:29:52;99713.78;;;2.81;100.00
75157;BME280;63736;50.076;8.198;2024-03-06T03:31:24;99716.41;;;2.81;100.00
75157;BME280;63736;50.076;8.198;2024-03-06T03:32:54;99712.94;;;2.81;100.00
75157;BME280;63736;50.076;8.198;2024-03-06T03:34:25;99714.72;;;2.80;100.00
75157;BME280;63736;50.076;8.198;2024-03-06T03:35:55;99711.22;;;2.80;100.00
75157;BME280;63736;50.076;8.198;2024-03-06T03:37:25;99717.34;;;2.80;100.00
75157;BME280;63736;50.076;8.198;2024-03-06T03:38:56;99716.41;;;2.81;100.00
75157;BME280;63736;50.076;8.198;2024-03-06T03:40:26;99713.78;;;2.81;100.00
75157;BME280;63736;50.076;8.198;2024-03-06T03:41:56;99712.94;;;2.81;100.00
75157;BME280;63736;50.076;8.198;2024-03-06T03:43:26;99717.25;;;2.82;100.00
75157;BME280;63736;50.076;8.198;2024-03-06T03:44:57;99711.16;;;2.81;100.00
75157;BME280;63736;50.076;8.198;2024-03-06T03:46:27;99715.59;;;2.81;100.00
75157;BME280;63736;50.076;8.198;2024-03-06T03:47:57;99717.34;;;2.80;100.00
75157;BME280;63736;50.076;8.198;2024-03-06T03:49:28;99717.34;;;2.80;100.00
75157;BME280;63736;50.076;8.198;2024-03-06T03:50:58;99717.41;;;2.79;100.00
75157;BME280;63736;50.076;8.198;2024-03-06T03:52:29;99722.78;;;2.77;100.00
75157;BME280;63736;50.076;8.198;2024-03-06T03:54:00;99713.16;;;2.76;100.00
75157;BME280;63736;50.076;8.198;2024-03-06T03:55:30;99727.25;;;2.75;100.00
75157;BME280;63736;50.076;8.198;2024-03-06T03:57:01;99722.91;;;2.74;100.00
75157;BME280;63736;50.076;8.198;2024-03-06T03:58:31;99730.78;;;2.76;100.00
75157;BME280;63736;50.076;8.198;2024-03-06T04:00:02;99725.50;;;2.76;100.00
75157;BME280;63736;50.076;8.198;2024-03-06T04:01:32;99722.88;;;2.76;100.00
75157;BME280;63736;50.076;8.198;2024-03-06T04:03:03;99724.50;;;2.78;100.00
75157;BME280;63736;50.076;8.198;2024-03-06T04:04:34;99727.13;;;2.78;100.00
75157;BME280;63736;50.076;8.198;2024-03-06T04:06:04;99715.63;;;2.79;100.00
75157;BME280;63736;50.076;8.198;2024-03-06T04:07:35;99723.53;;;2.79;100.00
75157;BME280;63736;50.076;8.198;2024-03-06T04:09:05;99726.25;;;2.78;100.00
75157;BME280;63736;50.076;8.198;2024-03-06T04:10:36;99729.81;;;2.77;100.00
75157;BME280;63736;50.076;8.198;2024-03-06T04:12:06;99727.19;;;2.77;100.00
75157;BME280;63736;50.076;8.198;2024-03-06T04:13:37;99728.97;;;2.76;100.00
75157;BME280;63736;50.076;8.198;2024-03-06T04:15:08;99733.34;;;2.77;100.00
75157;BME280;63736;50.076;8.198;2024-03-06T04:16:38;99733.41;;;2.76;100.00
75157;BME280;63736;50.076;8.198;2024-03-06T04:18:09;99735.19;;;2.75;100.00
75157;BME280;63736;50.076;8.198;2024-03-06T04:19:39;99734.41;;;2.73;100.00
75157;BME280;63736;50.076;8.198;2024-03-06T04:21:09;99739.69;;;2.73;100.00
75157;BME280;63736;50.076;8.198;2024-03-06T04:22:40;99736.97;;;2.75;100.00
75157;BME280;63736;50.076;8.198;2024-03-06T04:24:10;99736.06;;;2.76;100.00
75157;BME280;63736;50.076;8.198;2024-03-06T04:25:41;99737.72;;;2.77;100.00
75157;BME280;63736;50.076;8.198;2024-03-06T04:27:11;99738.53;;;2.79;100.00
75157;BME280;63736;50.076;8.198;2024-03-06T04:28:41;99741.09;;;2.80;100.00
75157;BME280;63736;50.076;8.198;2024-03-06T04:30:12;99732.97;;;2.85;100.00
75157;BME280;63736;50.076;8.198;2024-03-06T04:31:42;99738.06;;;2.88;100.00
75157;BME280;63736;50.076;8.198;2024-03-06T04:33:12;99743.22;;;2.91;100.00
75157;BME280;63736;50.076;8.198;2024-03-06T04:34:45;99747.47;;;2.94;100.00
75157;BME280;63736;50.076;8.198;2024-03-06T04:36:16;99751.69;;;2.98;100.00
75157;BME280;63736;50.076;8.198;2024-03-06T04:37:46;99749.81;;;3.00;100.00
75157;BME280;63736;50.076;8.198;2024-03-06T04:39:17;99754.00;;;3.04;100.00
75157;BME280;63736;50.076;8.198;2024-03-06T04:40:47;99751.22;;;3.07;100.00
75157;BME280;63736;50.076;8.198;2024-03-06T04:42:18;99752.06;;;3.08;100.00
75157;BME280;63736;50.076;8.198;2024-03-06T04:43:48;99757.22;;;3.11;100.00
75157;BME280;63736;50.076;8.198;2024-03-06T04:45:20;99763.19;;;3.14;100.00
75157;BME280;63736;50.076;8.198;2024-03-06T04:46:50;99764.81;;;3.17;100.00
75157;BME280;63736;50.076;8.198;2024-03-06T04:48:21;99763.88;;;3.18;100.00
75157;BME280;63736;50.076;8.198;2024-03-06T04:49:51;99763.81;;;3.20;100.00
75157;BME280;63736;50.076;8.198;2024-03-06T04:51:21;99765.44;;;3.22;100.00
75157;BME280;63736;50.076;8.198;2024-03-06T04:52:51;99777.63;;;3.25;100.00
75157;BME280;63736;50.076;8.198;2024-03-06T04:54:22;99774.06;;;3.26;100.00
75157;BME280;63736;50.076;8.198;2024-03-06T04:55:52;99783.63;;;3.28;100.00
75157;BME280;63736;50.076;8.198;2024-03-06T04:57:22;99778.34;;;3.28;100.00
75157;BME280;63736;50.076;8.198;2024-03-06T04:58:53;99782.78;;;3.28;100.00
75157;BME280;63736;50.076;8.198;2024-03-06T05:00:23;99782.69;;;3.29;100.00
75157;BME280;63736;50.076;8.198;2024-03-06T05:01:54;99783.53;;;3.30;100.00
75157;BME280;63736;50.076;8.198;2024-03-06T05:03:24;99784.34;;;3.32;100.00
75157;BME280;63736;50.076;8.198;2024-03-06T05:04:54;99792.25;;;3.32;100.00
75157;BME280;63736;50.076;8.198;2024-03-06T05:06:24;99791.34;;;3.33;100.00
75157;BME280;63736;50.076;8.198;2024-03-06T05:07:55;99790.31;;;3.36;100.00
75157;BME280;63736;50.076;8.198;2024-03-06T05:09:25;99795.53;;;3.37;100.00
75157;BME280;63736;50.076;8.198;2024-03-06T05:10:56;99792.78;;;3.39;100.00
75157;BME280;63736;50.076;8.198;2024-03-06T05:12:27;99793.59;;;3.41;100.00
75157;BME280;63736;50.076;8.198;2024-03-06T05:13:59;99799.53;;;3.44;100.00
75157;BME280;63736;50.076;8.198;2024-03-06T05:15:29;99794.25;;;3.44;100.00
75157;BME280;63736;50.076;8.198;2024-03-06T05:17:00;99795.13;;;3.45;100.00
75157;BME280;63736;50.076;8.198;2024-03-06T05:18:30;99808.34;;;3.45;100.00
75157;BME280;63736;50.076;8.198;2024-03-06T05:20:01;99807.47;;;3.44;100.00
75157;BME280;63736;50.076;8.198;2024-03-06T05:21:33;99797.00;;;3.43;100.00
75157;BME280;63736;50.076;8.198;2024-03-06T05:23:05;99799.72;;;3.41;100.00
75157;BME280;63736;50.076;8.198;2024-03-06T05:24:36;99800.72;;;3.39;100.00
75157;BME280;63736;50.076;8.198;2024-03-06T05:26:06;99791.09;;;3.38;100.00
75157;BME280;63736;50.076;8.198;2024-03-06T05:27:37;99795.53;;;3.37;100.00
75157;BME280;63736;50.076;8.198;2024-03-06T05:29:07;99799.00;;;3.38;100.00
75157;BME280;63736;50.076;8.198;2024-03-06T05:30:38;99799.88;;;3.38;100.00
75157;BME280;63736;50.076;8.198;2024-03-06T05:32:08;99803.34;;;3.39;100.00
75157;BME280;63736;50.076;8.198;2024-03-06T05:33:38;99811.38;;;3.37;100.00
75157;BME280;63736;50.076;8.198;2024-03-06T05:35:09;99803.44;;;3.37;100.00
75157;BME280;63736;50.076;8.198;2024-03-06T05:36:40;99811.38;;;3.37;100.00
75157;BME280;63736;50.076;8.198;2024-03-06T05:38:10;99811.38;;;3.37;100.00
75157;BME280;63736;50.076;8.198;2024-03-06T05:39:40;99827.22;;;3.37;100.00
75157;BME280;63736;50.076;8.198;2024-03-06T05:41:12;99822.00;;;3.36;100.00
75157;BME280;63736;50.076;8.198;2024-03-06T05:42:42;99812.38;;;3.35;100.00
75157;BME280;63736;50.076;8.198;2024-03-06T05:44:13;99818.56;;;3.34;100.00
75157;BME280;63736;50.076;8.198;2024-03-06T05:45:43;99823.84;;;3.34;100.00
75157;BME280;63736;50.076;8.198;2024-03-06T05:47:13;99823.78;;;3.35;100.00
75157;BME280;63736;50.076;8.198;2024-03-06T05:48:44;99829.84;;;3.37;100.00
75157;BME280;63736;50.076;8.198;2024-03-06T05:50:14;99831.47;;;3.40;100.00
75157;BME280;63736;50.076;8.198;2024-03-06T05:51:45;99834.88;;;3.42;100.00
75157;BME280;63736;50.076;8.198;2024-03-06T05:53:15;99834.84;;;3.43;100.00
75157;BME280;63736;50.076;8.198;2024-03-06T05:54:46;99826.91;;;3.43;100.00
75157;BME280;63736;50.076;8.198;2024-03-06T05:56:19;99840.88;;;3.45;100.00
75157;BME280;63736;50.076;8.198;2024-03-06T05:57:49;99835.47;;;3.49;100.00
75157;BME280;63736;50.076;8.198;2024-03-06T05:59:20;99844.78;;;3.56;100.00
75157;BME280;63736;50.076;8.198;2024-03-06T06:00:50;99840.91;;;3.63;100.00
75157;BME280;63736;50.076;8.198;2024-03-06T06:02:20;99848.28;;;3.74;100.00
75157;BME280;63736;50.076;8.198;2024-03-06T06:03:51;99850.53;;;3.82;100.00
75157;BME280;63736;50.076;8.198;2024-03-06T06:05:21;99851.91;;;3.89;100.00
75157;BME280;63736;50.076;8.198;2024-03-06T06:06:52;99847.13;;;3.97;100.00
75157;BME280;63736;50.076;8.198;2024-03-06T06:08:23;99847.66;;;4.04;100.00
75157;BME280;63736;50.076;8.198;2024-03-06T06:09:54;99857.13;;;4.08;100.00
75157;BME280;63736;50.076;8.198;2024-03-06T06:11:24;99857.75;;;4.13;100.00
75157;BME280;63736;50.076;8.198;2024-03-06T06:12:54;99862.72;;;4.19;100.00
75157;BME280;63736;50.076;8.198;2024-03-06T06:14:25;99859.81;;;4.24;100.00
75157;BME280;63736;50.076;8.198;2024-03-06T06:16:00;99858.78;;;4.26;100.00
75157;BME280;63736;50.076;8.198;2024-03-06T06:17:33;99860.50;;;4.27;100.00
75157;BME280;63736;50.076;8.198;2024-03-06T06:19:04;99872.03;;;4.26;100.00
75157;BME280;63736;50.076;8.198;2024-03-06T06:20:34;99869.56;;;4.23;100.00
75157;BME280;63736;50.076;8.198;2024-03-06T06:22:04;99871.50;;;4.20;100.00
75157;BME280;63736;50.076;8.198;2024-03-06T06:23:35;99867.31;;;4.16;100.00
75157;BME280;63736;50.076;8.198;2024-03-06T06:25:05;99864.88;;;4.11;100.00
75157;BME280;63736;50.076;8.198;2024-03-06T06:26:37;99873.06;;;4.06;100.00
75157;BME280;63736;50.076;8.198;2024-03-06T06:28:07;99868.00;;;4.02;100.00
75157;BME280;63736;50.076;8.198;2024-03-06T06:29:40;99869.00;;;3.99;100.00
75157;BME280;63736;50.076;8.198;2024-03-06T06:31:11;99865.63;;;3.97;100.00
75157;BME280;63736;50.076;8.198;2024-03-06T06:32:42;99870.97;;;3.95;100.00
75157;BME280;63736;50.076;8.198;2024-03-06T06:34:13;99876.03;;;4.00;100.00
75157;BME280;63736;50.076;8.198;2024-03-06T06:35:43;99877.81;;;4.00;100.00
75157;BME280;63736;50.076;8.198;2024-03-06T06:37:13;99877.66;;;4.03;100.00
75157;BME280;63736;50.076;8.198;2024-03-06T06:38:46;99878.53;;;4.03;100.00
75157;BME280;63736;50.076;8.198;2024-03-06T06:40:17;99884.25;;;4.11;100.00
75157;BME280;63736;50.076;8.198;2024-03-06T06:41:47;99883.00;;;4.19;100.00
75157;BME280;63736;50.076;8.198;2024-03-06T06:43:18;99885.50;;;4.22;100.00
75157;BME280;63736;50.076;8.198;2024-03-06T06:44:48;99889.59;;;4.27;100.00
75157;BME280;63736;50.076;8.198;2024-03-06T06:46:18;99889.47;;;4.30;100.00
75157;BME280;63736;50.076;8.198;2024-03-06T06:47:49;99886.66;;;4.34;100.00
75157;BME280;63736;50.076;8.198;2024-03-06T06:49:20;99895.38;;;4.36;100.00
75157;BME280;63736;50.076;8.198;2024-03-06T06:50:50;99890.00;;;4.37;100.00
75157;BME280;63736;50.076;8.198;2024-03-06T06:52:20;99895.91;;;4.42;100.00
75157;BME280;63736;50.076;8.198;2024-03-06T06:53:50;99907.22;;;4.44;100.00
75157;BME280;63736;50.076;8.198;2024-03-06T06:55:21;99901.94;;;4.44;100.00
75157;BME280;63736;50.076;8.198;2024-03-06T06:56:53;99908.94;;;4.45;100.00
75157;BME280;63736;50.076;8.198;2024-03-06T06:58:24;99904.50;;;4.46;100.00
75157;BME280;63736;50.076;8.198;2024-03-06T06:59:54;99906.31;;;4.45;100.00
75157;BME280;63736;50.076;8.198;2024-03-06T07:01:24;99910.56;;;4.48;100.00
75157;BME280;63736;50.076;8.198;2024-03-06T07:02:55;99908.78;;;4.49;100.00
75157;BME280;63736;50.076;8.198;2024-03-06T07:04:28;99902.41;;;4.53;100.00
75157;BME280;63736;50.076;8.198;2024-03-06T07:05:58;99907.22;;;4.62;100.00
75157;BME280;63736;50.076;8.198;2024-03-06T07:07:29;99910.13;;;4.73;100.00
75157;BME280;63736;50.076;8.198;2024-03-06T07:08:59;99905.81;;;4.88;100.00
75157;BME280;63736;50.076;8.198;2024-03-06T07:10:29;99914.22;;;5.12;100.00
75157;BME280;63736;50.076;8.198;2024-03-06T07:12:00;99907.78;;;5.49;100.00
75157;BME280;63736;50.076;8.198;2024-03-06T07:13:30;99908.53;;;6.13;100.00
75157;BME280;63736;50.076;8.198;2024-03-06T07:15:00;99911.81;;;6.76;100.00
75157;BME280;63736;50.076;8.198;2024-03-06T07:16:32;99911.66;;;7.35;100.00
75157;BME280;63736;50.076;8.198;2024-03-06T07:18:02;99917.41;;;7.97;100.00
75157;BME280;63736;50.076;8.198;2024-03-06T07:19:33;99913.78;;;8.51;100.00
75157;BME280;63736;50.076;8.198;2024-03-06T07:21:03;99921.63;;;9.04;100.00
75157;BME280;63736;50.076;8.198;2024-03-06T07:22:33;99904.06;;;9.63;100.00
75157;BME280;63736;50.076;8.198;2024-03-06T07:24:04;99904.91;;;10.23;100.00
75157;BME280;63736;50.076;8.198;2024-03-06T07:25:35;99918.25;;;10.70;100.00
75157;BME280;63736;50.076;8.198;2024-03-06T07:27:05;99912.19;;;10.90;100.00
75157;BME280;63736;50.076;8.198;2024-03-06T07:28:35;99905.25;;;10.99;100.00
75157;BME280;63736;50.076;8.198;2024-03-06T07:30:07;99912.28;;;11.12;100.00
75157;BME280;63736;50.076;8.198;2024-03-06T07:31:39;99913.84;;;11.26;100.00
75157;BME280;63736;50.076;8.198;2024-03-06T07:33:09;99920.38;;;11.55;100.00
75157;BME280;63736;50.076;8.198;2024-03-06T07:34:39;99921.50;;;11.85;100.00
75157;BME280;63736;50.076;8.198;2024-03-06T07:36:10;99908.84;;;12.20;100.00
75157;BME280;63736;50.076;8.198;2024-03-06T07:37:40;99915.97;;;12.31;100.00
75157;BME280;63736;50.076;8.198;2024-03-06T07:39:10;99917.44;;;12.23;100.00
75157;BME280;63736;50.076;8.198;2024-03-06T07:40:42;99914.91;;;11.89;100.00
75157;BME280;63736;50.076;8.198;2024-03-06T07:42:13;99911.09;;;11.60;100.00
75157;BME280;63736;50.076;8.198;2024-03-06T07:43:43;99928.84;;;11.05;100.00
75157;BME280;63736;50.076;8.198;2024-03-06T07:45:13;99927.94;;;10.60;100.00
75157;BME280;63736;50.076;8.198;2024-03-06T07:46:44;99928.97;;;10.34;100.00
75157;BME280;63736;50.076;8.198;2024-03-06T07:48:14;99926.88;;;9.91;100.00
75157;BME280;63736;50.076;8.198;2024-03-06T07:49:45;99936.88;;;9.76;100.00
75157;BME280;63736;50.076;8.198;2024-03-06T07:51:15;99935.69;;;9.56;100.00
75157;BME280;63736;50.076;8.198;2024-03-06T07:52:46;99939.88;;;9.47;100.00
75157;BME280;63736;50.076;8.198;2024-03-06T07:54:16;99945.22;;;9.34;100.00
75157;BME280;63736;50.076;8.198;2024-03-06T07:55:46;99943.13;;;9.26;100.00
75157;BME280;63736;50.076;8.198;2024-03-06T07:57:17;99955.13;;;9.32;100.00
75157;BME280;63736;50.076;8.198;2024-03-06T07:58:48;99949.19;;;9.29;100.00
75157;BME280;63736;50.076;8.198;2024-03-06T08:00:18;99948.34;;;9.28;100.00